ZF1EJ Savannah KY current weather conditions

sailwx.info

Wind from 181 at 10 knots gusting 15

Air temperature 26.7° C

Last reported at 2018-May-23 09:00 UTC.
Time now 2018-May-23 09:24 UTC

Location: N 19°16' W 081°18'.
View on Google Maps.

See reports from other nearby stations

  
Tides and Currents Weather Stations Pressure Air Temp Water Temp Dewpoint Dewpoint Depression Visibility Wind Speed Wind Dir Waves Ship Positions
date/time (UTC)wind fromknots sea level pressurealtimeterstation pressurevisibilityair tempwater tempwave heightnotes
2018-May-23 09:00 181 10 gusting 15 26.7
2018-May-23 08:00 152 12 gusting 15 26.7
2018-May-23 07:00 200 8 gusting 13 26.7
2018-May-23 06:00 176 8 gusting 12 26.7
2018-May-23 05:00 153 5 gusting 13 26.7
2018-May-23 04:00 140 9 gusting 14 26.1
2018-May-23 03:00 139 8 gusting 11 26.1
2018-May-23 02:00 139 6 gusting 13 25.6
2018-May-23 01:00 138 6 gusting 11 25.6
2018-May-23 00:00 105 6 gusting 13 25.0
2018-May-22 23:00 155 5 gusting 13 24.4
2018-May-22 22:00 152 6 gusting 12 23.9
2018-May-22 21:00 142 7 gusting 15 23.3
2018-May-22 20:00 106 8 gusting 12 23.9
2018-May-22 19:00 162 6 gusting 8 23.3
2018-May-22 18:00 133 6 gusting 13 23.9
2018-May-22 17:00 087 6 gusting 13 24.4
2018-May-22 16:00 162 5 gusting 14 24.4
2018-May-22 15:00 148 10 gusting 15 24.4
2018-May-22 14:00 152 9 gusting 17 23.9
2018-May-22 13:00 129 13 gusting 15 23.3
2018-May-22 12:00 153 10 gusting 15 23.3
2018-May-22 11:00 125 8 gusting 14 23.3
2018-May-22 10:00 136 8 gusting 14 23.3
2018-May-22 09:00 131 4 gusting 13 24.4
2018-May-22 08:00 172 6 gusting 11 23.9
2018-May-22 07:00 157 5 gusting 10 23.9
2018-May-22 06:00 157 4 gusting 14 23.3
2018-May-22 05:00 133 9 gusting 19 22.8
2018-May-22 04:00 150 1 gusting 6 23.3
2018-May-22 03:00 133 5 gusting 11 22.8
2018-May-22 02:00 139 5 gusting 8 23.3
2018-May-22 01:00 147 4 gusting 6 23.3
2018-May-22 00:00 228 2 gusting 5 23.9
2018-May-21 23:00 193 22.8
2018-May-21 22:00 327 0 gusting 5 22.8
2018-May-21 21:00 160 1 gusting 6 23.3
2018-May-21 20:00 268 23.9
2018-May-21 19:00 052 2 gusting 8 23.9
2018-May-21 18:00 088 5 gusting 10 24.4
2018-May-21 17:00 138 3 gusting 13 25.0
2018-May-21 16:00 152 7 gusting 18 24.4
2018-May-21 15:00 153 8 gusting 11 25.0
2018-May-21 14:00 130 4 gusting 7 26.7
2018-May-21 13:00 152 5 gusting 8 25.6
2018-May-21 12:00 148 7 gusting 13 25.0
2018-May-21 11:00 152 4 gusting 15 24.4
2018-May-21 10:00 155 14 gusting 17 25.0
2018-May-21 09:00 150 5 gusting 6 26.1